Time;durP1;ratioP1;P1;durP2;ratioP2;P2;SDS_P1;SDS_P2;PMS_P1;PMS_P2;Temp;Humidity;BMP_temperature;BMP_pressure;BME280_temperature;BME280_humidity;BME280_pressure;Samples;Min_cycle;Max_cycle;Signal;HPM_P1;HPM_P2
2023/06/06 00:00:59;;;;;;;9.93;5.18;;;;;;;;;;5003277;28;20038;-72
2023/06/06 00:03:25;;;;;;;11.13;5.18;;;;;;;;;;5005204;28;20589;-72
2023/06/06 00:05:51;;;;;;;7.05;4.70;;;;;;;;;;5004124;28;20501;-72
2023/06/06 00:08:20;;;;;;;8.27;4.97;;;;;;;;;;5003599;28;20449;-72
2023/06/06 00:10:46;;;;;;;7.28;4.63;;;;;;;;;;5007360;28;20046;-72
2023/06/06 00:13:13;;;;;;;6.10;4.60;;;;;;;;;;5003155;28;20049;-72
2023/06/06 00:15:40;;;;;;;10.25;4.90;;;;;;;;;;5005059;28;20486;-72
2023/06/06 00:18:06;;;;;;;7.25;4.90;;;13.20;99.90;;;;;;5004765;28;20045;-72
2023/06/06 00:20:32;;;;;;;6.90;4.75;;;;;;;;;;5001154;28;21152;-72
2023/06/06 00:22:59;;;;;;;6.25;4.47;;;;;;;;;;5020137;28;20434;-73
2023/06/06 00:25:25;;;;;;;6.88;4.40;;;;;;;;;;5006243;28;20216;-72
2023/06/06 00:27:51;;;;;;;8.63;4.60;;;;;;;;;;5005949;28;20553;-73
2023/06/06 00:30:17;;;;;;;9.98;4.95;;;;;;;;;;5000345;28;20546;-73
2023/06/06 00:32:43;;;;;;;7.88;4.72;;;12.80;99.90;;;;;;5007141;28;20096;-73
2023/06/06 00:35:09;;;;;;;9.55;4.45;;;12.80;99.90;;;;;;5006311;28;20050;-73
2023/06/06 00:37:35;;;;;;;11.40;4.80;;;12.90;99.90;;;;;;5007978;28;20395;-73
2023/06/06 00:40:01;;;;;;;9.32;4.68;;;12.80;99.90;;;;;;5009581;28;20121;-73
2023/06/06 00:42:26;;;;;;;7.85;4.55;;;12.90;99.90;;;;;;5006848;28;20050;-72
2023/06/06 00:44:52;;;;;;;9.18;4.35;;;12.90;99.90;;;;;;5001867;28;20030;-73
2023/06/06 00:47:18;;;;;;;7.35;4.35;;;12.90;99.90;;;;;;5020190;28;20065;-73
2023/06/06 00:50:06;;;;;;;9.23;4.70;;;13.00;99.90;;;;;;5009113;28;20030;-71
2023/06/06 00:52:33;;;;;;;7.75;4.05;;;13.10;99.90;;;;;;4987236;28;20104;-71
2023/06/06 00:54:59;;;;;;;6.32;4.18;;;;;;;;;;5008412;28;20482;-71
2023/06/06 00:57:26;;;;;;;8.32;4.45;;;;;;;;;;5018814;28;20116;-72
2023/06/06 00:59:53;;;;;;;8.52;4.45;;;;;;;;;;5007836;28;20045;-72
2023/06/06 01:02:20;;;;;;;9.07;4.63;;;;;;;;;;5003291;28;20121;-72
2023/06/06 01:04:46;;;;;;;8.68;4.85;;;;;;;;;;5008207;28;20045;-72
2023/06/06 01:07:17;;;;;;;10.02;4.50;;;;;;;;;;5006786;28;20128;-71
2023/06/06 01:09:43;;;;;;;10.20;5.13;;;;;;;;;;5004414;28;20049;-71
2023/06/06 01:12:23;;;;;;;9.63;4.93;;;;;;;;;;5006084;28;20551;-71
2023/06/06 01:14:55;;;;;;;7.32;4.72;;;;;;;;;;5008609;28;20045;-71
2023/06/06 01:17:25;;;;;;;7.72;4.90;;;;;;;;;;5007018;28;20038;-71
2023/06/06 01:19:52;;;;;;;7.70;4.63;;;;;;;;;;5011921;28;20042;-72
2023/06/06 01:22:22;;;;;;;8.00;4.40;;;;;;;;;;5008558;28;20120;-71
2023/06/06 01:24:51;;;;;;;6.47;4.22;;;;;;;;;;5009301;28;20046;-71
2023/06/06 01:27:17;;;;;;;11.90;4.75;;;;;;;;;;5003422;28;20050;-72
2023/06/06 01:29:43;;;;;;;8.48;5.00;;;;;;;;;;5005321;28;20389;-71
2023/06/06 01:32:13;;;;;;;10.65;5.05;;;;;;;;;;5011655;28;20396;-72
2023/06/06 01:34:48;;;;;;;6.13;4.68;;;;;;;;;;5009428;28;20117;-72
2023/06/06 01:37:14;;;;;;;8.77;5.88;;;;;;;;;;5009812;28;20046;-71
2023/06/06 01:39:42;;;;;;;9.35;5.32;;;;;;;;;;5011519;28;20439;-72
2023/06/06 01:42:08;;;;;;;9.55;5.20;;;;;;;;;;5006532;28;20112;-71
2023/06/06 01:44:35;;;;;;;7.20;4.63;;;;;;;;;;5010337;28;20046;-71
2023/06/06 01:47:01;;;;;;;10.25;5.40;;;;;;;;;;5025319;28;20050;-71
2023/06/06 01:49:27;;;;;;;9.90;5.00;;;;;;;;;;5008095;28;20417;-71
2023/06/06 01:51:54;;;;;;;9.10;5.13;;;;;;;;;;5010762;28;20046;-71
2023/06/06 01:54:20;;;;;;;8.55;5.47;;;;;;;;;;5007596;28;20061;-72
2023/06/06 01:56:47;;;;;;;11.20;4.85;;;;;;;;;;5003247;28;20501;-71
2023/06/06 01:59:13;;;;;;;9.07;5.20;;;;;;;;;;5024245;28;20486;-71
2023/06/06 02:01:39;;;;;;;8.80;5.68;;;;;;;;;;5004684;28;20426;-72
2023/06/06 02:04:05;;;;;;;9.48;5.38;;;;;;;;;;5003625;28;20049;-72
2023/06/06 02:06:32;;;;;;;8.82;5.53;;;;;;;;;;5006624;28;20053;-71
2023/06/06 02:08:58;;;;;;;10.85;5.90;;;;;;;;;;5006286;28;20042;-72
2023/06/06 02:11:24;;;;;;;10.50;7.00;;;;;;;;;;5004487;28;20054;-73
2023/06/06 02:13:51;;;;;;;10.63;6.18;;;13.10;99.90;;;;;;5002417;28;20046;-72
2023/06/06 02:16:17;;;;;;;12.20;7.35;;;12.50;99.90;;;;;;5005641;28;20041;-73
2023/06/06 02:18:44;;;;;;;13.10;6.78;;;12.60;99.90;;;;;;5005874;28;20042;-72
2023/06/06 02:21:12;;;;;;;10.70;6.25;;;12.60;99.90;;;;;;5008668;28;20406;-73
2023/06/06 02:23:39;;;;;;;10.77;6.82;;;12.60;99.90;;;;;;5004166;28;20101;-73
2023/06/06 02:26:05;;;;;;;14.65;7.30;;;12.70;99.90;;;;;;5009675;28;20537;-73
2023/06/06 02:28:30;;;;;;;11.57;6.30;;;12.70;99.90;;;;;;5003399;28;20038;-73
2023/06/06 02:30:56;;;;;;;9.98;6.30;;;12.60;99.90;;;;;;5008531;28;20056;-73
2023/06/06 02:33:22;;;;;;;11.68;6.40;;;12.70;99.90;;;;;;5007299;28;20512;-73
2023/06/06 02:35:50;;;;;;;10.68;7.20;;;12.60;99.90;;;;;;5006369;28;20446;-73
2023/06/06 02:38:15;;;;;;;11.65;7.07;;;12.60;99.90;;;;;;5008771;28;20041;-73
2023/06/06 02:40:42;;;;;;;11.27;7.28;;;12.60;99.90;;;;;;5008316;28;20049;-72
2023/06/06 02:43:08;;;;;;;12.15;7.13;;;12.60;99.90;;;;;;5004869;28;20512;-73
2023/06/06 02:45:35;;;;;;;11.63;7.35;;;12.50;99.90;;;;;;4999846;28;20045;-72
2023/06/06 02:48:00;;;;;;;13.90;8.00;;;12.50;99.90;;;;;;5008344;28;20397;-72
2023/06/06 02:50:28;;;;;;;9.98;7.32;;;12.60;99.90;;;;;;5006177;28;20049;-72
2023/06/06 02:52:55;;;;;;;11.45;7.28;;;12.60;99.90;;;;;;5009173;28;20077;-72
2023/06/06 02:55:20;;;;;;;10.50;6.60;;;12.70;99.90;;;;;;5006877;28;20088;-73
2023/06/06 02:57:46;;;;;;;11.50;7.05;;;12.70;99.90;;;;;;5009915;28;20057;-72
2023/06/06 03:00:12;;;;;;;14.05;7.22;;;12.70;99.90;;;;;;5006947;28;20414;-73
2023/06/06 03:02:38;;;;;;;14.43;7.25;;;12.80;99.90;;;;;;5004776;28;20037;-72
2023/06/06 03:05:04;;;;;;;13.55;7.57;;;12.80;99.90;;;;;;5006094;28;20034;-73
2023/06/06 03:07:31;;;;;;;12.82;6.93;;;12.80;99.90;;;;;;5008481;28;20038;-73
2023/06/06 03:09:57;;;;;;;16.50;7.97;;;12.70;99.90;;;;;;5009803;28;20482;-72
2023/06/06 03:12:23;;;;;;;13.63;7.80;;;12.80;99.90;;;;;;5002972;28;20072;-72
2023/06/06 03:14:48;;;;;;;12.48;7.90;;;12.70;99.90;;;;;;5009000;28;20051;-73
2023/06/06 03:17:14;;;;;;;13.90;7.97;;;12.70;99.90;;;;;;5007303;28;20049;-73
2023/06/06 03:19:40;;;;;;;10.65;7.22;;;12.70;99.90;;;;;;5005160;28;20103;-73
2023/06/06 03:22:06;;;;;;;13.35;8.05;;;12.70;99.90;;;;;;5007727;28;20038;-72
2023/06/06 03:24:33;;;;;;;13.07;7.68;;;12.70;99.90;;;;;;5010181;28;20084;-72
2023/06/06 03:27:00;;;;;;;15.88;8.18;;;12.70;99.90;;;;;;5019296;28;20581;-72
2023/06/06 03:29:26;;;;;;;14.48;8.40;;;12.70;99.90;;;;;;5007680;28;20418;-72
2023/06/06 03:31:51;;;;;;;11.57;8.00;;;12.70;99.90;;;;;;5008023;28;20041;-72
2023/06/06 03:34:17;;;;;;;11.88;7.32;;;12.70;99.90;;;;;;5006194;28;20045;-73
2023/06/06 03:36:43;;;;;;;13.30;7.93;;;12.70;99.90;;;;;;5004640;28;20119;-73
2023/06/06 03:39:09;;;;;;;13.00;7.40;;;12.70;99.90;;;;;;5005649;28;20099;-73
2023/06/06 03:41:34;;;;;;;12.98;7.00;;;12.80;99.90;;;;;;5006119;28;20077;-73
2023/06/06 03:44:00;;;;;;;13.73;6.85;;;12.80;99.90;;;;;;5006269;28;20133;-73
2023/06/06 03:46:26;;;;;;;11.82;6.90;;;12.70;99.90;;;;;;5004406;28;20131;-73
2023/06/06 03:48:52;;;;;;;13.68;6.85;;;12.90;99.90;;;;;;5007721;28;20132;-73
2023/06/06 03:51:18;;;;;;;11.95;7.00;;;12.90;99.90;;;;;;5015212;28;20100;-73
2023/06/06 03:53:43;;;;;;;13.25;6.43;;;12.90;99.90;;;;;;5001595;28;20046;-72
2023/06/06 03:56:09;;;;;;;13.43;6.80;;;;;;;;;;5003871;28;20046;-73
2023/06/06 03:58:36;;;;;;;10.68;5.70;;;13.00;99.90;;;;;;5001747;28;20054;-73
2023/06/06 04:01:02;;;;;;;9.50;5.78;;;13.00;99.90;;;;;;5002098;28;20046;-73
2023/06/06 04:03:36;;;;;;;9.70;5.45;;;13.00;99.90;;;;;;5003553;28;20084;-72
2023/06/06 04:06:05;;;;;;;;;;;13.10;99.90;;;;;;5007267;28;20099;-72
2023/06/06 04:08:32;;;;;;;8.38;5.13;;;13.10;99.90;;;;;;5000617;28;19922;-72
2023/06/06 04:10:57;;;;;;;11.38;5.43;;;13.20;99.90;;;;;;5006519;28;20061;-72
2023/06/06 04:13:23;;;;;;;9.57;4.90;;;13.30;99.90;;;;;;5019829;28;20049;-72
2023/06/06 04:15:49;;;;;;;9.30;4.93;;;13.40;99.90;;;;;;5006823;28;20029;-72
2023/06/06 04:18:15;;;;;;;10.77;4.70;;;13.40;99.90;;;;;;5007787;28;20541;-72
2023/06/06 04:20:43;;;;;;;8.63;5.07;;;13.40;99.90;;;;;;5005330;28;20501;-73
2023/06/06 04:23:09;;;;;;;7.63;4.82;;;13.50;99.90;;;;;;5004836;28;20049;-73
2023/06/06 04:25:35;;;;;;;9.20;5.13;;;13.50;99.90;;;;;;5005642;28;20042;-72
2023/06/06 04:28:00;;;;;;;7.03;4.97;;;13.60;99.90;;;;;;5004256;28;20041;-73
2023/06/06 04:30:29;;;;;;;8.88;4.97;;;13.40;99.90;;;;;;5004968;28;20054;-73
2023/06/06 04:32:56;;;;;;;9.02;4.65;;;13.50;99.90;;;;;;5022082;28;20061;-72
2023/06/06 04:35:23;;;;;;;7.70;4.20;;;13.40;99.90;;;;;;5007740;28;20516;-73
2023/06/06 04:37:50;;;;;;;11.45;5.03;;;13.40;99.90;;;;;;5005481;28;20054;-73
2023/06/06 04:40:16;;;;;;;9.73;5.03;;;13.30;99.90;;;;;;5005192;28;20038;-72
2023/06/06 04:42:41;;;;;;;10.57;5.10;;;13.30;99.90;;;;;;4998646;28;20041;-73
2023/06/06 04:45:08;;;;;;;11.45;5.03;;;13.30;99.90;;;;;;5001015;28;20064;-72
2023/06/06 04:47:35;;;;;;;8.38;5.30;;;13.50;99.90;;;;;;5008363;28;20045;-72
2023/06/06 04:50:00;;;;;;;11.02;5.03;;;13.50;99.90;;;;;;5003709;28;20057;-72
2023/06/06 04:52:28;;;;;;;10.93;4.75;;;13.40;99.90;;;;;;5003898;28;20054;-71
2023/06/06 04:54:56;;;;;;;8.48;4.63;;;13.50;99.90;;;;;;5008492;28;20370;-71
2023/06/06 04:57:23;;;;;;;7.57;4.60;;;13.60;99.90;;;;;;5005359;28;20818;-72
2023/06/06 04:59:52;;;;;;;10.57;3.95;;;13.60;99.90;;;;;;5004610;28;20045;-72
2023/06/06 05:02:22;;;;;;;8.10;4.97;;;13.60;99.90;;;;;;5006123;28;20042;-72
2023/06/06 05:04:50;;;;;;;8.80;4.90;;;13.60;99.90;;;;;;5003248;28;20037;-71
2023/06/06 05:07:15;;;;;;;10.82;4.78;;;13.60;99.90;;;;;;5005777;28;20394;-71
2023/06/06 05:09:41;;;;;;;8.77;5.38;;;13.60;99.90;;;;;;5010161;28;20030;-72
2023/06/06 05:12:07;;;;;;;11.13;5.32;;;13.60;99.90;;;;;;5006629;28;20397;-72
2023/06/06 05:14:33;;;;;;;8.65;4.78;;;13.70;99.90;;;;;;5004312;28;20611;-72
2023/06/06 05:16:59;;;;;;;7.45;4.80;;;13.80;99.90;;;;;;5003407;28;20044;-72
2023/06/06 05:19:24;;;;;;;9.75;5.28;;;14.10;99.90;;;;;;4999265;28;20058;-71
2023/06/06 05:21:51;;;;;;;11.73;6.03;;;13.80;99.90;;;;;;5004266;28;20493;-71
2023/06/06 05:24:16;;;;;;;10.95;4.95;;;13.90;99.90;;;;;;5001548;28;20494;-72
2023/06/06 05:26:42;;;;;;;9.05;4.90;;;13.90;99.90;;;;;;5004438;28;20044;-71
2023/06/06 05:29:08;;;;;;;9.90;5.43;;;14.00;99.90;;;;;;5005013;28;20489;-71
2023/06/06 05:31:34;;;;;;;9.00;5.22;;;14.00;99.90;;;;;;4998318;28;20092;-72
2023/06/06 05:34:01;;;;;;;8.65;4.93;;;14.10;99.90;;;;;;5001866;28;20108;-72
2023/06/06 05:36:27;;;;;;;9.68;4.82;;;14.20;99.90;;;;;;5003609;28;20053;-71
2023/06/06 05:38:53;;;;;;;11.18;4.75;;;14.20;99.90;;;;;;5005150;28;20030;-72
2023/06/06 05:41:20;;;;;;;8.55;4.78;;;14.40;99.90;;;;;;5001603;28;20474;-72
2023/06/06 05:43:46;;;;;;;9.52;4.22;;;14.50;99.90;;;;;;5003017;28;20042;-72
2023/06/06 05:46:13;;;;;;;9.93;4.45;;;14.60;99.90;;;;;;5001483;28;20054;-72
2023/06/06 05:48:39;;;;;;;7.10;4.30;;;14.60;99.90;;;;;;5002046;28;20168;-72
2023/06/06 05:51:05;;;;;;;6.88;4.43;;;14.50;99.90;;;;;;4998195;28;20038;-71
2023/06/06 05:53:31;;;;;;;10.43;4.20;;;14.30;99.90;;;;;;4998862;28;20378;-71
2023/06/06 05:55:57;;;;;;;6.05;3.85;;;14.30;99.90;;;;;;5005823;28;20080;-71
2023/06/06 05:58:23;;;;;;;8.98;3.70;;;14.30;99.90;;;;;;5005350;28;20066;-72
2023/06/06 06:00:48;;;;;;;9.90;4.05;;;14.40;99.90;;;;;;5003537;28;20478;-71
2023/06/06 06:03:15;;;;;;;6.28;3.83;;;14.30;99.90;;;;;;5005104;28;20057;-71
2023/06/06 06:05:40;;;;;;;9.15;3.40;;;14.30;99.90;;;;;;5006000;28;20030;-72
2023/06/06 06:08:06;;;;;;;7.35;3.70;;;14.40;99.90;;;;;;5001646;28;20552;-71
2023/06/06 06:10:34;;;;;;;9.43;4.10;;;14.30;99.90;;;;;;5008377;28;20046;-71
2023/06/06 06:13:01;;;;;;;10.82;4.25;;;14.10;99.90;;;;;;5011794;28;20693;-71
2023/06/06 06:15:32;;;;;;;7.43;4.10;;;14.20;99.90;;;;;;5004499;28;20050;-71
2023/06/06 06:17:58;;;;;;;7.80;3.90;;;14.50;99.90;;;;;;5007936;28;20041;-71
2023/06/06 06:20:24;;;;;;;5.88;3.78;;;14.50;99.90;;;;;;5008666;28;20038;-71
2023/06/06 06:22:50;;;;;;;8.82;4.03;;;14.40;99.90;;;;;;5008251;28;20371;-71
2023/06/06 06:25:19;;;;;;;6.20;3.90;;;14.50;99.90;;;;;;5002199;28;20057;-72
2023/06/06 06:27:46;;;;;;;6.93;3.85;;;14.50;99.90;;;;;;5004242;28;20042;-71
2023/06/06 06:30:13;;;;;;;7.53;3.80;;;14.50;99.90;;;;;;5005750;28;20184;-71
2023/06/06 06:32:40;;;;;;;10.77;4.78;;;14.50;99.90;;;;;;5007942;28;20096;-71
2023/06/06 06:35:07;;;;;;;5.72;3.80;;;14.40;99.90;;;;;;5010005;28;20414;-72
2023/06/06 06:37:36;;;;;;;5.97;3.90;;;14.40;99.90;;;;;;5007244;28;20037;-72
2023/06/06 06:40:05;;;;;;;7.38;3.97;;;14.50;99.90;;;;;;5011011;28;20037;-71
2023/06/06 06:42:31;;;;;;;7.65;4.40;;;14.50;99.90;;;;;;5003504;28;20132;-71
2023/06/06 06:44:56;;;;;;;9.95;4.38;;;14.40;99.90;;;;;;5002106;28;20557;-72
2023/06/06 06:47:22;;;;;;;7.68;4.03;;;14.40;99.90;;;;;;5009534;28;20136;-72
2023/06/06 06:49:48;;;;;;;5.78;3.72;;;14.50;99.90;;;;;;5010571;28;20477;-71
2023/06/06 06:52:16;;;;;;;8.55;4.40;;;14.30;99.90;;;;;;5007828;28;20050;-72
2023/06/06 06:54:48;;;;;;;6.65;3.60;;;14.30;99.90;;;;;;5007841;28;20057;-72
2023/06/06 06:57:13;;;;;;;6.32;3.55;;;14.40;99.90;;;;;;5011019;28;20474;-72
2023/06/06 06:59:40;;;;;;;8.30;4.45;;;14.40;99.90;;;;;;5002647;28;20128;-71
2023/06/06 07:02:06;;;;;;;7.15;3.90;;;14.50;99.90;;;;;;5009653;28;20050;-72
2023/06/06 07:04:32;;;;;;;7.07;4.35;;;14.50;99.90;;;;;;5002784;28;20050;-72
2023/06/06 07:06:57;;;;;;;10.18;4.55;;;14.40;99.90;;;;;;5001118;28;20038;-72
2023/06/06 07:09:23;;;;;;;6.38;4.30;;;14.70;99.90;;;;;;5008768;28;20081;-71
2023/06/06 07:11:48;;;;;;;8.25;4.25;;;14.60;99.90;;;;;;5004547;28;20054;-71
2023/06/06 07:14:14;;;;;;;7.57;4.50;;;14.50;99.90;;;;;;4999895;28;20043;-72
2023/06/06 07:16:41;;;;;;;6.40;3.70;;;14.60;99.90;;;;;;5007840;28;20056;-72
2023/06/06 07:19:07;;;;;;;7.53;4.53;;;14.60;99.90;;;;;;5005568;28;20049;-72
2023/06/06 07:21:33;;;;;;;9.35;4.25;;;14.60;99.90;;;;;;5005491;28;20052;-72
2023/06/06 07:23:58;;;;;;;7.07;4.20;;;14.50;99.90;;;;;;5008756;28;20038;-72
2023/06/06 07:26:26;;;;;;;6.95;4.53;;;14.60;99.90;;;;;;5009839;28;20116;-71
2023/06/06 07:28:52;;;;;;;8.07;4.38;;;14.70;99.90;;;;;;5024207;28;20100;-72
2023/06/06 07:31:17;;;;;;;11.35;4.75;;;14.90;99.90;;;;;;4997715;28;20773;-72
2023/06/06 07:33:44;;;;;;;11.43;4.70;;;14.90;99.90;;;;;;4996281;28;20042;-72
2023/06/06 07:36:10;;;;;;;8.02;4.15;;;15.00;99.90;;;;;;5008695;28;20042;-72
2023/06/06 07:38:36;;;;;;;6.22;4.05;;;15.10;99.90;;;;;;5008233;28;20038;-72
2023/06/06 07:41:04;;;;;;;7.20;4.13;;;15.10;99.90;;;;;;5006552;28;20379;-72
2023/06/06 07:43:29;;;;;;;6.68;4.05;;;15.10;99.90;;;;;;4997576;28;20044;-71
2023/06/06 07:45:55;;;;;;;6.63;4.00;;;15.10;99.90;;;;;;5000588;28;20088;-71
2023/06/06 07:48:21;;;;;;;6.32;4.07;;;15.00;99.90;;;;;;4999651;28;20050;-71
2023/06/06 07:50:46;;;;;;;5.97;4.53;;;15.00;99.90;;;;;;5002988;28;20056;-71
2023/06/06 07:53:12;;;;;;;6.15;4.65;;;14.90;99.90;;;;;;5003295;28;20054;-71
2023/06/06 07:55:38;;;;;;;8.02;4.90;;;14.90;99.90;;;;;;4999283;28;20421;-71
2023/06/06 07:58:10;;;;;;;11.50;5.07;;;14.90;99.90;;;;;;4994688;28;20180;-72
2023/06/06 08:00:44;;;;;;;8.38;4.85;;;14.90;99.90;;;;;;4999772;28;20046;-72
2023/06/06 08:03:11;;;;;;;7.53;4.63;;;15.10;99.90;;;;;;5007559;28;20052;-71
2023/06/06 08:05:38;;;;;;;13.85;5.85;;;15.20;99.90;;;;;;5006929;28;20432;-71
2023/06/06 08:08:06;;;;;;;9.20;4.80;;;15.10;99.90;;;;;;5002029;28;20050;-72
2023/06/06 08:10:32;;;;;;;7.50;4.97;;;15.10;99.90;;;;;;5004481;28;20104;-72
2023/06/06 08:12:59;;;;;;;9.25;4.93;;;15.20;99.90;;;;;;5000577;28;20502;-72
2023/06/06 08:15:25;;;;;;;10.05;4.78;;;15.40;99.90;;;;;;5003399;28;20109;-72
2023/06/06 08:17:50;;;;;;;7.00;4.53;;;15.50;99.90;;;;;;4997033;28;20046;-72
2023/06/06 08:20:17;;;;;;;8.77;5.25;;;15.50;99.90;;;;;;5006216;28;20052;-72
2023/06/06 08:22:50;;;;;;;9.77;5.15;;;15.90;99.90;;;;;;5008647;28;20049;-72
2023/06/06 08:25:15;;;;;;;10.52;5.10;;;15.80;99.90;;;;;;5006679;28;20052;-71
2023/06/06 08:27:41;;;;;;;9.95;5.15;;;15.60;99.90;;;;;;5008675;28;20042;-72
2023/06/06 08:30:08;;;;;;;9.90;5.03;;;15.70;99.90;;;;;;5007116;28;20392;-72
2023/06/06 08:32:34;;;;;;;9.23;5.20;;;15.50;99.90;;;;;;5006985;28;20049;-72
2023/06/06 08:35:03;;;;;;;10.75;5.70;;;15.60;99.90;;;;;;5008131;28;20382;-72
2023/06/06 08:37:30;;;;;;;10.27;5.45;;;15.70;99.90;;;;;;5000684;28;20056;-72
2023/06/06 08:39:55;;;;;;;14.88;5.15;;;15.60;99.90;;;;;;4998754;28;20548;-72
2023/06/06 08:42:22;;;;;;;8.13;5.22;;;15.50;99.90;;;;;;5004312;28;20057;-72
2023/06/06 08:44:49;;;;;;;11.75;5.45;;;15.60;99.90;;;;;;5002950;28;20485;-72
2023/06/06 08:47:16;;;;;;;9.75;5.57;;;15.70;99.90;;;;;;5003706;28;20430;-71
2023/06/06 08:49:43;;;;;;;11.68;5.68;;;15.90;99.90;;;;;;4999060;28;20069;-71
2023/06/06 08:52:09;;;;;;;11.27;5.90;;;15.90;99.90;;;;;;4999665;28;20488;-71
2023/06/06 08:54:36;;;;;;;11.98;5.63;;;15.90;99.90;;;;;;5002706;28;20386;-72
2023/06/06 08:57:07;;;;;;;8.98;5.30;;;15.90;99.90;;;;;;5001220;28;20392;-72
2023/06/06 08:59:36;;;;;;;9.25;5.53;;;15.90;99.90;;;;;;5001651;28;20047;-72
2023/06/06 09:02:06;;;;;;;9.10;5.30;;;15.70;99.90;;;;;;5006029;28;20041;-72
2023/06/06 09:04:33;;;;;;;9.18;5.07;;;15.70;99.90;;;;;;5004948;28;20045;-72
2023/06/06 09:07:04;;;;;;;8.05;5.47;;;15.70;99.90;;;;;;5005082;28;20042;-72
2023/06/06 09:09:35;;;;;;;9.15;5.35;;;15.70;99.90;;;;;;4999872;28;20042;-72
2023/06/06 09:12:00;;;;;;;10.05;5.32;;;15.70;99.90;;;;;;5002612;28;20049;-72
2023/06/06 09:14:26;;;;;;;8.82;5.68;;;15.80;99.90;;;;;;5004981;28;20054;-72
2023/06/06 09:16:52;;;;;;;9.32;5.40;;;15.70;99.90;;;;;;5004418;28;20064;-72
2023/06/06 09:19:24;;;;;;;9.32;5.32;;;15.80;99.90;;;;;;5000757;28;20406;-72
2023/06/06 09:21:49;;;;;;;8.85;5.15;;;15.80;99.90;;;;;;5009109;28;20120;-72
2023/06/06 09:24:16;;;;;;;11.75;5.47;;;15.90;99.90;;;;;;5007083;28;20459;-72
2023/06/06 09:26:42;;;;;;;9.52;5.30;;;15.80;99.90;;;;;;4999773;28;20409;-72
2023/06/06 09:29:08;;;;;;;7.72;4.60;;;16.00;99.90;;;;;;4997472;28;20088;-73
2023/06/06 09:31:38;;;;;;;9.00;5.18;;;16.00;99.90;;;;;;5005199;28;20084;-73
2023/06/06 09:34:07;;;;;;;10.98;5.65;;;16.10;99.90;;;;;;5002038;28;20401;-72
2023/06/06 09:36:33;;;;;;;8.07;5.05;;;16.20;99.90;;;;;;5007519;28;20417;-72
2023/06/06 09:39:09;;;;;;;7.15;5.18;;;16.20;99.90;;;;;;5008868;28;20046;-71
2023/06/06 09:41:46;;;;;;;7.15;4.78;;;16.10;99.90;;;;;;5005326;28;20049;-72
2023/06/06 09:44:18;;;;;;;8.65;5.70;;;16.10;99.90;;;;;;5007924;28;20052;-72
2023/06/06 09:46:44;;;;;;;7.40;4.80;;;16.10;99.90;;;;;;5005510;28;20122;-73
2023/06/06 09:49:12;;;;;;;8.35;5.00;;;16.10;99.90;;;;;;5002640;28;20574;-73
2023/06/06 09:51:41;;;;;;;10.95;5.68;;;16.10;99.90;;;;;;5009417;28;20049;-72
2023/06/06 09:54:09;;;;;;;11.07;5.97;;;16.20;99.90;;;;;;5003407;28;20042;-72
2023/06/06 09:56:39;;;;;;;14.90;6.28;;;16.30;99.90;;;;;;5005982;28;20065;-73
2023/06/06 09:59:06;;;;;;;9.02;5.70;;;16.40;99.90;;;;;;5001344;28;20810;-71
2023/06/06 10:01:33;;;;;;;9.50;5.18;;;16.30;99.90;;;;;;5010770;28;20049;-72
2023/06/06 10:04:00;;;;;;;9.82;5.68;;;16.30;99.90;;;;;;5012767;28;20117;-72
2023/06/06 10:06:33;;;;;;;9.82;6.10;;;16.50;99.90;;;;;;5002108;28;20168;-71
2023/06/06 10:08:59;;;;;;;;;;;16.60;99.90;;;;;;5004708;28;20096;-72
2023/06/06 10:11:27;;;;;;;11.45;5.88;;;16.60;99.90;;;;;;5007249;28;20365;-72
2023/06/06 10:13:54;;;;;;;11.52;5.90;;;16.80;99.90;;;;;;5010649;28;20101;-72
2023/06/06 10:16:20;;;;;;;10.55;6.10;;;17.00;99.90;;;;;;5008846;28;20049;-73
2023/06/06 10:18:48;;;;;;;8.68;5.95;;;17.00;99.90;;;;;;5004807;28;20133;-72
2023/06/06 10:21:17;;;;;;;8.68;5.90;;;16.80;99.90;;;;;;5004423;28;20042;-72
2023/06/06 10:23:43;;;;;;;10.85;6.30;;;16.80;99.90;;;;;;5008876;28;20046;-73
2023/06/06 10:26:17;;;;;;;10.57;5.82;;;16.80;99.90;;;;;;5011915;28;20052;-73
2023/06/06 10:28:52;;;;;;;11.25;6.05;;;16.90;99.90;;;;;;5001860;28;20425;-72
2023/06/06 10:31:27;;;;;;;10.77;5.93;;;17.00;99.90;;;;;;5012380;28;20561;-72
2023/06/06 10:33:57;;;;;;;15.25;6.30;;;17.00;99.90;;;;;;5007823;28;20050;-72
2023/06/06 10:36:23;;;;;;;9.65;5.72;;;17.10;99.90;;;;;;4993927;28;20074;-72
2023/06/06 10:39:21;;;;;;;10.48;5.85;;;17.10;99.90;;;;;;5009331;28;20137;-72
2023/06/06 10:41:52;;;;;;;11.55;6.22;;;17.20;99.90;;;;;;4998561;28;20037;-72
2023/06/06 10:44:35;;;;;;;9.43;5.30;;;17.40;99.90;;;;;;5012533;28;20132;-72
2023/06/06 10:47:23;;;;;;;10.10;5.87;;;17.30;99.90;;;;;;5010709;28;20073;-73
2023/06/06 10:50:11;;;;;;;9.90;5.97;;;17.30;99.90;;;;;;5009699;28;20304;-73
2023/06/06 10:53:04;;;;;;;9.15;5.43;;;17.30;99.90;;;;;;4999749;28;20215;-73
2023/06/06 10:55:30;;;;;;;;;;;17.40;99.90;;;;;;4998590;28;20573;-73
2023/06/06 10:58:16;;;;;;;9.32;5.60;;;17.50;99.90;;;;;;5004360;28;20000;-72
2023/06/06 11:00:46;;;;;;;10.45;5.80;;;17.50;99.90;;;;;;5001650;28;20069;-72
2023/06/06 11:03:19;;;;;;;11.18;5.28;;;17.50;99.90;;;;;;5003490;28;20568;-72
2023/06/06 11:06:00;;;;;;;8.82;5.25;;;17.40;99.90;;;;;;5003313;28;20732;-72
2023/06/06 11:08:39;;;;;;;9.40;5.47;;;17.50;99.90;;;;;;5002587;28;20053;-72
2023/06/06 11:11:30;;;;;;;8.40;5.97;;;17.50;99.90;;;;;;5007927;28;20135;-72
2023/06/06 11:14:03;;;;;;;11.98;5.55;;;17.50;99.90;;;;;;5003381;28;20097;-72
2023/06/06 11:16:49;;;;;;;7.65;5.20;;;17.50;99.90;;;;;;5004653;28;20050;-72
2023/06/06 11:19:19;;;;;;;10.45;5.32;;;17.40;99.90;;;;;;5026289;28;20057;-72
2023/06/06 11:22:00;;;;;;;8.82;5.00;;;17.40;99.90;;;;;;5001918;28;20081;-72
2023/06/06 11:24:33;;;;;;;9.60;5.60;;;17.40;99.90;;;;;;5002487;28;20084;-72
2023/06/06 11:26:59;;;;;;;11.02;6.10;;;17.70;99.90;;;;;;5004369;28;20058;-72
2023/06/06 11:29:26;;;;;;;8.80;5.90;;;17.70;99.90;;;;;;5007594;28;20046;-72
2023/06/06 11:31:52;;;;;;;11.32;5.93;;;17.70;99.90;;;;;;4996661;28;20058;-73
2023/06/06 11:34:18;;;;;;;14.88;5.75;;;17.70;99.90;;;;;;4999887;28;20054;-72
2023/06/06 11:36:44;;;;;;;9.65;5.40;;;17.70;99.90;;;;;;5007923;28;20052;-72
2023/06/06 11:39:11;;;;;;;11.13;5.82;;;17.80;99.90;;;;;;5026622;28;20128;-72
2023/06/06 11:41:45;;;;;;;10.23;5.38;;;17.90;99.90;;;;;;5010003;28;20501;-72
2023/06/06 11:44:12;;;;;;;10.35;5.22;;;17.90;99.90;;;;;;5012197;28;20053;-72
2023/06/06 11:46:47;;;;;;;7.60;5.20;;;18.00;99.90;;;;;;5000728;28;20052;-72
2023/06/06 11:49:13;;;;;;;10.02;5.18;;;18.00;99.90;;;;;;4995939;28;20085;-72
2023/06/06 11:51:40;;;;;;;10.05;4.32;;;18.00;99.90;;;;;;4992896;28;20049;-72
2023/06/06 11:54:19;;;;;;;9.68;4.72;;;18.10;99.90;;;;;;4991736;28;20050;-72
2023/06/06 11:56:45;;;;;;;11.73;5.15;;;18.00;99.90;;;;;;5007092;28;20046;-72
2023/06/06 11:59:14;;;;;;;9.13;5.10;;;18.00;99.90;;;;;;5007633;28;20056;-72
2023/06/06 12:01:52;;;;;;;8.43;4.63;;;18.10;99.90;;;;;;5007660;28;20551;-72
2023/06/06 12:04:22;;;;;;;6.53;4.55;;;18.10;99.90;;;;;;5007026;28;20085;-72
2023/06/06 12:06:53;;;;;;;8.95;4.20;;;18.10;99.90;;;;;;5001104;28;20498;-72
2023/06/06 12:09:20;;;;;;;10.45;5.53;;;18.30;99.90;;;;;;5000946;28;20496;-72
2023/06/06 12:12:00;;;;;;;10.73;4.40;;;18.40;99.90;;;;;;5004036;28;20061;-72
2023/06/06 12:14:27;;;;;;;7.20;4.60;;;18.40;99.90;;;;;;5005370;28;20148;-72
2023/06/06 12:17:10;;;;;;;6.97;4.68;;;18.40;99.90;;;;;;5004014;28;20127;-72
2023/06/06 12:19:36;;;;;;;15.95;5.50;;;18.30;99.90;;;;;;5007197;28;20473;-72
2023/06/06 12:22:02;;;;;;;7.82;4.40;;;18.40;99.90;;;;;;5009241;28;20030;-73
2023/06/06 12:24:30;;;;;;;8.80;4.50;;;18.60;99.90;;;;;;4996390;28;20140;-71
2023/06/06 12:26:59;;;;;;;7.82;4.95;;;18.70;99.90;;;;;;5005846;28;20041;-72
2023/06/06 12:29:30;;;;;;;8.18;4.47;;;18.70;99.90;;;;;;5001464;28;20778;-72
2023/06/06 12:32:30;;;;;;;6.85;4.50;;;18.70;99.90;;;;;;5008159;28;20109;-72
2023/06/06 12:35:03;;;;;;;9.32;4.80;;;18.80;99.90;;;;;;5005671;28;20050;-72
2023/06/06 12:37:39;;;;;;;7.88;4.45;;;18.80;99.90;;;;;;5003423;28;20060;-72
2023/06/06 12:40:33;;;;;;;11.60;4.85;;;18.70;99.90;;;;;;4998263;28;20069;-71
2023/06/06 12:43:05;;;;;;;9.50;4.45;;;18.60;99.90;;;;;;5005555;28;20044;-72
2023/06/06 12:45:36;;;;;;;15.38;5.63;;;18.70;99.90;;;;;;5003426;28;20049;-72
2023/06/06 12:48:02;;;;;;;8.30;4.82;;;18.70;99.90;;;;;;5004562;28;20073;-72
2023/06/06 12:50:28;;;;;;;9.13;4.65;;;18.80;99.90;;;;;;5005617;28;20046;-72
2023/06/06 12:52:54;;;;;;;7.78;5.05;;;18.90;99.90;;;;;;5002091;28;20056;-72
2023/06/06 12:55:20;;;;;;;9.95;4.43;;;18.90;99.90;;;;;;5003697;28;20080;-72
2023/06/06 12:57:47;;;;;;;8.48;4.53;;;19.00;99.90;;;;;;5008636;28;20077;-72
2023/06/06 13:00:16;;;;;;;11.98;4.90;;;19.10;99.90;;;;;;5006424;28;20048;-72
2023/06/06 13:02:42;;;;;;;11.13;5.18;;;19.20;99.90;;;;;;5003248;28;20038;-72